Time;durP1;ratioP1;P1;durP2;ratioP2;P2;SDS_P1;SDS_P2;PMS_P1;PMS_P2;Temp;Humidity;BMP_temperature;BMP_pressure;BME280_temperature;BME280_humidity;BME280_pressure;Samples;Min_cycle;Max_cycle;Signal;HPM_P1;HPM_P2
2022/06/02 00:00:12;;;;;;;15.10;11.63;;;10.10;99.90;;;;;;5008716;28;20149;-66
2022/06/02 00:02:59;;;;;;;15.70;12.48;;;10.10;99.90;;;;;;5004285;28;20059;-64
2022/06/02 00:05:53;;;;;;;12.57;10.90;;;10.10;99.90;;;;;;5005384;28;20574;-67
2022/06/02 00:08:46;;;;;;;12.90;11.07;;;10.10;99.90;;;;;;5006697;28;20056;-69
2022/06/02 00:11:18;;;;;;;12.50;11.00;;;10.10;99.90;;;;;;4992237;28;20258;-69
2022/06/02 00:14:10;;;;;;;10.82;8.65;;;10.10;99.90;;;;;;5006684;28;20045;-66
2022/06/02 00:16:56;;;;;;;9.07;8.18;;;10.20;99.90;;;;;;5005995;28;20467;-66
2022/06/02 00:19:31;;;;;;;9.85;8.88;;;10.20;99.90;;;;;;5007474;28;20060;-66
2022/06/02 00:22:07;;;;;;;10.25;8.52;;;10.20;99.90;;;;;;5002607;28;20061;-69
2022/06/02 00:25:03;;;;;;;8.02;6.97;;;10.20;99.90;;;;;;4985954;28;20081;-69
2022/06/02 00:27:39;;;;;;;8.68;7.43;;;10.20;99.90;;;;;;4970346;28;20114;-65
2022/06/02 00:30:24;;;;;;;8.02;7.32;;;10.20;99.90;;;;;;4986975;28;20049;-69
2022/06/02 00:33:10;;;;;;;7.63;6.93;;;10.20;99.90;;;;;;4989141;28;22027;-66
2022/06/02 00:35:42;;;;;;;8.50;7.70;;;10.20;99.90;;;;;;4986810;28;20085;-68
2022/06/02 00:38:26;;;;;;;7.13;6.43;;;10.20;99.90;;;;;;4984399;28;20105;-67
2022/06/02 00:40:54;;;;;;;7.13;6.43;;;10.20;99.90;;;;;;4988633;28;20085;-67
2022/06/02 00:43:32;;;;;;;7.53;6.53;;;10.20;99.90;;;;;;4988636;28;20049;-70
2022/06/02 00:46:22;;;;;;;9.20;6.70;;;10.20;99.90;;;;;;4988356;28;20136;-68
2022/06/02 00:48:57;;;;;;;6.90;6.20;;;10.20;99.90;;;;;;4991607;28;20172;-68
2022/06/02 00:51:39;;;;;;;7.57;6.25;;;10.20;99.90;;;;;;4993834;28;20049;-66
2022/06/02 00:57:32;;;;;;;6.50;6.00;;;10.20;99.90;;;;;;4993999;28;20056;-67
2022/06/02 01:00:22;;;;;;;7.65;5.82;;;10.20;99.90;;;;;;4993345;28;20058;-65
2022/06/02 01:02:54;;;;;;;6.75;6.15;;;10.20;99.90;;;;;;4991267;28;20096;-69
2022/06/02 01:05:51;;;;;;;6.60;6.00;;;10.20;99.90;;;;;;4992399;28;20137;-66
2022/06/02 01:08:33;;;;;;;6.82;6.32;;;10.20;99.90;;;;;;4991228;28;20063;-70
2022/06/02 01:11:09;;;;;;;7.90;7.20;;;10.20;99.90;;;;;;4990470;28;20216;-67
2022/06/02 01:14:01;;;;;;;6.30;5.70;;;10.20;99.90;;;;;;4993427;28;20724;-69
2022/06/02 01:16:47;;;;;;;7.35;6.72;;;10.20;99.90;;;;;;4992707;28;20052;-68
2022/06/02 01:19:26;;;;;;;7.35;6.68;;;10.20;99.90;;;;;;4993305;28;20196;-67
2022/06/02 01:22:11;;;;;;;8.13;7.43;;;10.20;99.90;;;;;;4992148;28;20072;-70
2022/06/02 01:25:00;;;;;;;7.30;6.50;;;10.20;99.90;;;;;;4989367;28;20701;-66
2022/06/02 01:27:50;;;;;;;7.32;6.63;;;10.20;99.90;;;;;;5006028;28;20186;-65
2022/06/02 01:30:42;;;;;;;7.15;6.45;;;10.10;99.90;;;;;;5010130;28;20065;-70
2022/06/02 01:33:12;;;;;;;7.47;6.70;;;10.10;99.90;;;;;;5012442;28;20077;-69
2022/06/02 01:36:01;;;;;;;7.13;6.60;;;10.10;99.90;;;;;;5010282;28;20056;-69
2022/06/02 01:38:37;;;;;;;7.57;6.93;;;10.10;99.90;;;;;;5008975;28;20053;-65
2022/06/02 01:41:32;;;;;;;7.63;6.93;;;10.10;99.90;;;;;;5010547;28;20334;-69
2022/06/02 01:44:31;;;;;;;6.60;6.00;;;10.10;99.90;;;;;;5010622;28;20084;-70
2022/06/02 01:47:04;;;;;;;8.27;7.47;;;10.10;99.90;;;;;;5011979;28;20140;-66
2022/06/02 01:49:51;;;;;;;7.07;6.38;;;10.10;99.90;;;;;;5012859;28;20050;-67
2022/06/02 01:52:32;;;;;;;7.95;7.25;;;10.10;99.90;;;;;;5012602;28;20456;-65
2022/06/02 01:55:02;;;;;;;;;;;10.10;99.90;;;;;;5013430;28;20045;-66
2022/06/02 01:57:34;;;;;;;7.20;6.30;;;10.10;99.90;;;;;;5011232;28;19983;-66
2022/06/02 02:00:06;;;;;;;6.82;6.13;;;10.10;99.90;;;;;;5013117;28;20447;-67
2022/06/02 02:03:01;;;;;;;7.05;6.53;;;10.10;99.90;;;;;;5011386;28;20063;-68
2022/06/02 02:06:00;;;;;;;7.75;7.05;;;10.00;99.90;;;;;;5013945;28;20160;-65
2022/06/02 02:08:48;;;;;;;9.05;6.00;;;10.10;99.90;;;;;;4994796;28;20372;-68
2022/06/02 02:11:23;;;;;;;8.60;7.80;;;10.10;99.90;;;;;;5013390;28;20053;-68
2022/06/02 02:14:11;;;;;;;9.00;7.20;;;10.10;99.90;;;;;;5010653;28;20132;-66
2022/06/02 02:16:56;;;;;;;8.10;6.32;;;10.00;99.90;;;;;;5011256;28;20345;-70
2022/06/02 02:19:29;;;;;;;6.97;6.38;;;10.00;99.90;;;;;;5013435;28;20115;-67
2022/06/02 02:22:20;;;;;;;7.25;6.55;;;10.00;99.90;;;;;;5012520;28;20115;-69
2022/06/02 02:25:02;;;;;;;8.27;7.57;;;10.00;99.90;;;;;;5009492;28;20056;-67
2022/06/02 02:30:36;;;;;;;7.50;6.88;;;10.10;99.90;;;;;;5005248;28;20466;-66
2022/06/02 02:33:26;;;;;;;8.15;7.45;;;10.10;99.90;;;;;;5012181;28;20073;-67
2022/06/02 02:36:11;;;;;;;8.40;7.70;;;10.10;99.90;;;;;;5011940;28;20049;-65
2022/06/02 02:39:16;;;;;;;7.95;7.25;;;10.10;99.90;;;;;;5005310;28;20061;-69
2022/06/02 02:41:57;;;;;;;7.47;6.70;;;10.10;99.90;;;;;;5012836;28;21050;-66
2022/06/02 02:44:28;;;;;;;7.75;7.05;;;10.10;99.90;;;;;;5010544;28;20053;-69
2022/06/02 02:47:07;;;;;;;9.77;8.77;;;10.10;99.90;;;;;;5008935;28;20062;-64
2022/06/02 02:49:47;;;;;;;8.27;7.57;;;10.10;99.90;;;;;;5010488;28;20057;-66
2022/06/02 02:52:29;;;;;;;;;;;10.20;99.90;;;;;;5011462;28;20152;-68
2022/06/02 02:55:09;;;;;;;8.05;7.32;;;10.20;99.90;;;;;;5012197;28;20024;-68
2022/06/02 02:58:12;;;;;;;10.65;7.50;;;10.20;99.90;;;;;;5011872;28;21222;-70
2022/06/02 03:01:00;;;;;;;7.65;6.97;;;10.20;99.90;;;;;;4993162;28;20231;-67
2022/06/02 03:03:31;;;;;;;8.52;7.72;;;10.10;99.90;;;;;;5012005;28;20148;-65
2022/06/02 03:06:17;;;;;;;7.63;6.82;;;10.10;99.90;;;;;;5009040;28;20111;-68
2022/06/02 03:09:02;;;;;;;11.18;6.85;;;10.20;99.90;;;;;;5009787;28;20682;-68
2022/06/02 03:11:44;;;;;;;7.35;6.65;;;10.10;99.90;;;;;;5011476;28;20145;-70
2022/06/02 03:14:13;;;;;;;8.48;7.55;;;10.10;99.90;;;;;;5009365;28;20053;-69
2022/06/02 03:16:41;;;;;;;8.18;7.40;;;10.10;99.90;;;;;;5010698;28;20057;-70
2022/06/02 03:19:30;;;;;;;8.30;7.57;;;10.10;99.90;;;;;;5010557;28;20521;-66
2022/06/02 03:22:31;;;;;;;8.45;7.68;;;10.10;99.90;;;;;;5010571;28;20088;-66
2022/06/02 03:25:00;;;;;;;7.65;7.05;;;10.10;99.90;;;;;;5009794;28;20049;-68
2022/06/02 03:27:45;;;;;;;11.25;7.85;;;10.10;99.90;;;;;;5011841;28;20049;-68
2022/06/02 03:30:21;;;;;;;11.98;7.72;;;10.20;99.90;;;;;;5009129;28;20164;-69
2022/06/02 03:33:05;;;;;;;7.63;6.93;;;10.10;99.90;;;;;;5008913;28;21003;-70
2022/06/02 03:35:39;;;;;;;10.20;8.90;;;10.20;99.90;;;;;;5009983;28;20049;-66
2022/06/02 03:38:29;;;;;;;8.70;7.97;;;10.20;99.90;;;;;;5009666;28;20095;-68
2022/06/02 03:41:11;;;;;;;9.20;8.30;;;10.20;99.90;;;;;;5010184;28;20179;-68
2022/06/02 03:43:53;;;;;;;8.02;7.28;;;10.30;99.90;;;;;;5009971;28;20139;-67
2022/06/02 03:46:54;;;;;;;9.13;7.78;;;10.30;99.90;;;;;;5006683;28;20774;-65
2022/06/02 03:49:33;;;;;;;;;;;10.30;99.90;;;;;;5005850;28;20068;-69
2022/06/02 03:52:18;;;;;;;10.38;9.38;;;10.30;99.90;;;;;;5008927;28;19991;-66
2022/06/02 03:55:05;;;;;;;9.07;8.23;;;10.30;99.90;;;;;;5009506;28;20365;-65
2022/06/02 03:57:56;;;;;;;9.57;8.77;;;10.30;99.90;;;;;;5009028;28;20144;-67
2022/06/02 04:00:44;;;;;;;8.55;7.70;;;10.30;99.90;;;;;;5005633;28;21206;-66
2022/06/02 04:03:25;;;;;;;10.70;8.48;;;10.30;99.90;;;;;;5009139;28;20475;-66
2022/06/02 04:06:20;;;;;;;9.07;8.18;;;10.30;99.90;;;;;;5006014;28;20495;-69
2022/06/02 04:09:02;;;;;;;9.05;8.15;;;10.30;99.90;;;;;;4999028;28;20053;-67
2022/06/02 04:14:40;;;;;;;8.57;7.88;;;10.30;99.90;;;;;;5008354;28;20061;-68
2022/06/02 04:18:12;;;;;;;9.63;8.38;;;10.40;99.90;;;;;;5009618;28;20065;-68
2022/06/02 04:20:58;;;;;;;9.30;8.50;;;10.30;99.90;;;;;;4939210;28;20065;-67
2022/06/02 04:23:56;;;;;;;9.48;8.65;;;10.40;99.90;;;;;;5010997;28;20136;-67
2022/06/02 04:26:41;;;;;;;10.10;9.10;;;10.40;99.90;;;;;;5013941;28;20768;-66
2022/06/02 04:29:41;;;;;;;8.93;7.93;;;10.40;99.90;;;;;;5015374;28;20061;-66
2022/06/02 04:32:16;;;;;;;9.57;8.63;;;10.40;99.90;;;;;;5013488;28;20077;-67
2022/06/02 04:35:04;;;;;;;9.32;8.45;;;10.40;99.90;;;;;;5014265;28;20156;-66
2022/06/02 04:37:55;;;;;;;11.05;10.05;;;10.50;99.90;;;;;;5012607;28;20653;-68
2022/06/02 04:40:40;;;;;;;9.45;8.55;;;10.50;99.90;;;;;;5013376;28;20057;-66
2022/06/02 04:43:21;;;;;;;9.80;8.90;;;10.50;99.90;;;;;;5015248;28;20085;-68
2022/06/02 04:46:10;;;;;;;9.98;8.98;;;10.50;99.90;;;;;;5013500;28;20058;-70
2022/06/02 04:49:08;;;;;;;9.50;7.80;;;10.50;99.90;;;;;;5011973;28;20098;-67
2022/06/02 04:51:47;;;;;;;8.43;7.57;;;10.60;99.90;;;;;;5013380;28;20060;-70
2022/06/02 04:54:40;;;;;;;7.35;6.75;;;10.50;99.90;;;;;;5005269;28;20235;-71
2022/06/02 04:57:22;;;;;;;7.63;7.03;;;10.60;99.90;;;;;;5011979;28;20103;-68
2022/06/02 04:59:54;;;;;;;8.80;8.00;;;10.60;99.90;;;;;;5014088;28;20081;-67
2022/06/02 05:02:52;;;;;;;8.85;7.95;;;10.60;99.90;;;;;;5008487;28;20522;-69
2022/06/02 05:05:33;;;;;;;8.13;7.43;;;10.70;99.90;;;;;;5008273;28;20168;-68
2022/06/02 05:08:03;;;;;;;7.63;7.03;;;10.80;99.90;;;;;;5012051;28;20148;-67
2022/06/02 05:11:15;;;;;;;9.20;8.30;;;10.80;99.90;;;;;;5008437;28;20056;-66
2022/06/02 05:14:19;;;;;;;9.05;8.20;;;10.80;99.90;;;;;;4997041;28;20057;-68
2022/06/02 05:17:17;;;;;;;7.50;6.90;;;10.80;99.90;;;;;;5010978;28;20128;-67
2022/06/02 05:20:00;;;;;;;10.23;9.23;;;10.90;99.90;;;;;;5010851;28;20180;-68
2022/06/02 05:22:40;;;;;;;10.57;7.53;;;10.90;99.90;;;;;;5013275;28;20128;-66
2022/06/02 05:25:31;;;;;;;9.38;7.72;;;10.90;99.90;;;;;;5009903;28;20979;-67
2022/06/02 05:28:18;;;;;;;8.52;7.82;;;10.80;99.90;;;;;;5007416;28;20192;-65
2022/06/02 05:31:10;;;;;;;8.38;7.68;;;10.80;99.90;;;;;;5011029;28;20064;-67
2022/06/02 05:33:52;;;;;;;8.38;7.57;;;10.80;99.90;;;;;;5012137;28;20121;-66
2022/06/02 05:36:29;;;;;;;7.43;6.70;;;10.90;99.90;;;;;;5010492;28;20053;-69
2022/06/02 05:39:01;;;;;;;8.35;7.60;;;10.90;99.90;;;;;;5013363;28;20053;-66
2022/06/02 05:41:59;;;;;;;8.55;7.80;;;10.80;99.90;;;;;;5009933;28;20088;-67
2022/06/02 05:44:29;;;;;;;8.82;8.02;;;10.80;99.90;;;;;;5010474;28;20509;-69
2022/06/02 05:47:32;;;;;;;8.27;7.57;;;10.80;99.90;;;;;;4993586;28;20360;-68
2022/06/02 05:49:58;;;;;;;8.90;8.20;;;10.80;99.90;;;;;;5010693;28;20155;-68
2022/06/02 05:52:54;;;;;;;8.45;7.55;;;10.80;99.90;;;;;;5011038;28;20057;-68
2022/06/02 05:55:39;;;;;;;8.45;7.72;;;10.80;99.90;;;;;;5012107;28;20482;-65
2022/06/02 05:58:26;;;;;;;8.45;7.65;;;10.80;99.90;;;;;;5004591;28;20168;-66
2022/06/02 06:01:18;;;;;;;8.07;7.28;;;10.80;99.90;;;;;;5010409;28;20141;-68
2022/06/02 06:04:15;;;;;;;9.98;7.95;;;10.80;99.90;;;;;;5011843;28;20093;-70
2022/06/02 06:07:15;;;;;;;10.43;9.43;;;10.80;99.90;;;;;;5010476;28;20045;-69
2022/06/02 06:09:57;;;;;;;9.27;8.27;;;10.80;99.90;;;;;;5005028;28;20165;-69
2022/06/02 06:12:56;;;;;;;12.35;8.70;;;10.90;99.90;;;;;;5005745;28;20060;-67
2022/06/02 06:16:02;;;;;;;11.32;8.90;;;10.90;99.90;;;;;;5010647;28;20144;-67
2022/06/02 06:18:59;;;;;;;9.55;8.60;;;10.90;99.90;;;;;;4985948;28;20057;-65
2022/06/02 06:21:46;;;;;;;9.82;8.93;;;11.00;99.90;;;;;;5010250;28;20057;-66
2022/06/02 06:24:19;;;;;;;11.68;8.57;;;10.90;99.90;;;;;;5006684;28;20077;-68
2022/06/02 06:27:13;;;;;;;10.68;9.15;;;11.00;99.90;;;;;;5011363;28;20053;-68
2022/06/02 06:29:52;;;;;;;10.43;9.30;;;11.00;99.90;;;;;;5007359;28;20464;-66
2022/06/02 06:32:38;;;;;;;10.10;9.07;;;11.00;99.90;;;;;;5009181;28;20136;-68
2022/06/02 06:35:23;;;;;;;10.13;9.23;;;11.00;99.90;;;;;;5010201;28;20045;-68
2022/06/02 06:38:15;;;;;;;11.82;10.48;;;11.00;99.90;;;;;;5011458;28;20176;-66
2022/06/02 06:41:00;;;;;;;9.52;8.30;;;10.90;99.90;;;;;;5010056;28;20171;-64
2022/06/02 06:44:03;;;;;;;9.65;8.75;;;10.90;99.90;;;;;;5009238;28;20053;-69
2022/06/02 06:46:48;;;;;;;9.98;8.68;;;11.00;99.90;;;;;;5009906;28;20101;-68
2022/06/02 06:49:27;;;;;;;9.88;8.77;;;11.00;99.90;;;;;;4992938;28;20235;-68
2022/06/02 06:52:34;;;;;;;12.27;9.70;;;10.90;99.90;;;;;;5012689;28;20140;-68
2022/06/02 06:55:21;;;;;;;10.90;8.70;;;11.00;99.90;;;;;;5010328;28;20148;-68
2022/06/02 06:58:11;;;;;;;9.68;8.75;;;11.00;99.90;;;;;;5010123;28;20089;-68
2022/06/02 07:00:49;;;;;;;10.85;9.75;;;11.00;99.90;;;;;;5003391;28;20096;-65
2022/06/02 07:03:20;;;;;;;12.05;9.50;;;10.90;99.90;;;;;;5010904;28;20055;-66
2022/06/02 07:05:48;;;;;;;;;;;10.90;99.90;;;;;;5010802;28;20056;-66
2022/06/02 07:08:36;;;;;;;10.77;9.68;;;10.90;99.90;;;;;;5007488;28;20039;-65
2022/06/02 07:12:50;;;;;;;9.18;8.38;;;10.90;99.90;;;;;;5009389;28;20223;-65
2022/06/02 07:14:06;;;;;;;23.08;9.25;;;10.90;99.90;;;;;;5009933;28;20584;-69
2022/06/02 07:16:55;;;;;;;11.43;8.13;;;10.90;99.90;;;;;;5003230;28;20494;-67
2022/06/02 07:19:54;;;;;;;17.10;9.47;;;10.90;99.90;;;;;;5006494;28;20057;-67
2022/06/02 07:23:02;;;;;;;11.68;8.00;;;10.90;99.90;;;;;;5008548;28;20064;-67
2022/06/02 07:25:58;;;;;;;8.45;7.72;;;10.90;99.90;;;;;;5007988;28;20064;-67
2022/06/02 07:28:31;;;;;;;9.57;8.63;;;11.00;99.90;;;;;;5005779;28;20086;-65
2022/06/02 07:31:19;;;;;;;8.80;7.95;;;11.00;99.90;;;;;;5006254;28;20057;-65
2022/06/02 07:34:11;;;;;;;10.75;8.38;;;11.00;99.90;;;;;;5004195;28;20195;-67
2022/06/02 07:37:03;;;;;;;9.25;7.55;;;11.00;99.90;;;;;;5005786;28;20164;-68
2022/06/02 07:39:47;;;;;;;10.52;9.63;;;10.90;99.90;;;;;;5006061;28;20437;-70
2022/06/02 07:42:51;;;;;;;10.48;8.43;;;10.90;99.90;;;;;;5008489;28;20056;-68
2022/06/02 07:45:37;;;;;;;9.90;8.30;;;10.90;99.90;;;;;;5009356;28;20053;-66
2022/06/02 07:48:33;;;;;;;9.60;8.73;;;10.90;99.90;;;;;;4984800;28;20137;-65
2022/06/02 07:51:23;;;;;;;10.75;8.18;;;10.90;99.90;;;;;;5007182;28;20073;-67
2022/06/02 07:54:10;;;;;;;9.57;8.77;;;10.90;99.90;;;;;;5008711;28;20053;-66
2022/06/02 07:57:07;;;;;;;10.65;9.60;;;10.90;99.90;;;;;;5009131;28;21111;-66
2022/06/02 08:00:13;;;;;;;10.50;9.50;;;10.90;99.90;;;;;;5010026;28;21215;-69
2022/06/02 08:03:08;;;;;;;13.77;9.27;;;10.90;99.90;;;;;;5008790;28;20795;-67
2022/06/02 08:05:48;;;;;;;10.73;9.18;;;10.90;99.90;;;;;;5008063;28;20042;-70
2022/06/02 08:08:29;;;;;;;13.73;9.27;;;10.80;99.90;;;;;;5007999;28;20460;-66
2022/06/02 08:11:18;;;;;;;9.20;7.63;;;10.90;99.90;;;;;;5010087;28;20842;-70
2022/06/02 08:13:49;;;;;;;8.40;7.50;;;10.90;99.90;;;;;;5008616;28;20700;-66
2022/06/02 08:16:40;;;;;;;7.50;6.18;;;10.90;99.90;;;;;;5000084;28;20064;-65
2022/06/02 08:19:33;;;;;;;7.55;6.50;;;10.90;99.90;;;;;;5003219;28;21954;-65
2022/06/02 08:22:04;;;;;;;10.90;5.82;;;10.90;99.90;;;;;;4984295;28;20054;-67
2022/06/02 08:24:54;;;;;;;9.18;7.80;;;10.90;99.90;;;;;;5003349;28;20049;-68
2022/06/02 08:27:46;;;;;;;9.13;6.75;;;10.80;99.90;;;;;;5017293;28;20699;-65
2022/06/02 08:30:23;;;;;;;7.82;6.97;;;10.90;99.90;;;;;;5004968;28;20423;-65
2022/06/02 08:32:59;;;;;;;10.80;7.07;;;10.90;99.90;;;;;;5007560;28;20132;-66
2022/06/02 08:35:54;;;;;;;8.23;7.03;;;10.90;99.90;;;;;;5000711;28;20519;-65
2022/06/02 08:38:49;;;;;;;7.65;6.53;;;10.90;99.90;;;;;;5002270;28;20065;-67
2022/06/02 08:41:47;;;;;;;8.68;6.50;;;10.90;99.90;;;;;;5007478;28;20962;-66
2022/06/02 08:44:26;;;;;;;11.05;6.45;;;11.00;99.90;;;;;;5004348;28;21277;-65
2022/06/02 08:47:30;;;;;;;8.75;5.82;;;11.00;99.90;;;;;;5008210;28;20049;-66
2022/06/02 08:50:12;;;;;;;8.30;5.72;;;11.00;99.90;;;;;;5008536;28;20546;-65
2022/06/02 08:53:08;;;;;;;8.30;7.47;;;11.10;99.90;;;;;;5002219;28;20186;-67
2022/06/02 08:55:46;;;;;;;8.80;5.93;;;11.10;99.90;;;;;;5008286;28;20076;-65
2022/06/02 08:58:30;;;;;;;7.35;6.00;;;11.10;99.90;;;;;;5005209;28;20061;-67
2022/06/02 09:01:26;;;;;;;6.57;5.93;;;11.10;99.90;;;;;;5010466;28;20131;-64
2022/06/02 09:04:22;;;;;;;6.05;5.25;;;11.20;99.90;;;;;;5010646;28;20061;-66
2022/06/02 09:07:10;;;;;;;9.07;5.65;;;11.20;99.90;;;;;;5006315;28;21410;-65
2022/06/02 09:10:15;;;;;;;6.18;5.57;;;11.30;99.90;;;;;;5011837;28;20053;-67
2022/06/02 09:12:54;;;;;;;4.95;4.45;;;11.40;99.90;;;;;;5012404;28;20119;-64
2022/06/02 09:15:41;;;;;;;6.93;5.25;;;11.50;99.90;;;;;;5012072;28;20055;-67
2022/06/02 09:18:18;;;;;;;5.82;4.57;;;11.60;99.90;;;;;;5007306;28;20053;-67
2022/06/02 09:21:09;;;;;;;13.88;5.32;;;11.60;99.90;;;;;;5012137;28;20134;-66
2022/06/02 09:23:55;;;;;;;7.65;4.57;;;11.70;99.90;;;;;;5008956;28;20594;-66
2022/06/02 09:26:29;;;;;;;6.03;4.32;;;11.70;99.90;;;;;;5013372;28;20127;-66
2022/06/02 09:29:18;;;;;;;6.90;4.13;;;11.80;99.90;;;;;;5012676;28;20062;-66
2022/06/02 09:32:12;;;;;;;5.13;4.00;;;11.80;99.90;;;;;;5008182;28;20049;-68
2022/06/02 09:34:57;;;;;;;5.55;3.97;;;11.90;99.90;;;;;;5008646;28;20478;-66
2022/06/02 09:37:33;;;;;;;6.90;3.78;;;11.90;99.90;;;;;;5013438;28;20569;-64
2022/06/02 09:40:06;;;;;;;8.25;4.40;;;11.80;99.90;;;;;;5008914;28;20045;-66
2022/06/02 09:42:47;;;;;;;5.03;3.88;;;11.80;99.90;;;;;;5008422;28;20107;-67
2022/06/02 09:45:43;;;;;;;6.72;4.43;;;11.80;99.90;;;;;;5010231;28;20053;-67
2022/06/02 09:48:45;;;;;;;9.88;3.78;;;11.60;99.90;;;;;;4991361;28;20149;-67
2022/06/02 09:51:12;;;;;;;5.28;3.75;;;11.70;99.90;;;;;;5013801;28;20139;-66
2022/06/02 09:54:10;;;;;;;5.97;3.95;;;11.70;99.90;;;;;;5011564;28;20219;-65
2022/06/02 10:00:23;;;;;;;5.70;4.05;;;11.70;99.90;;;;;;5005274;28;20064;-67
2022/06/02 10:03:11;;;;;;;5.22;3.85;;;11.70;99.90;;;;;;5014352;28;20053;-65
2022/06/02 10:05:51;;;;;;;8.98;5.25;;;11.60;99.90;;;;;;5011055;28;20160;-67
2022/06/02 10:08:38;;;;;;;8.05;3.90;;;11.60;99.90;;;;;;5012370;28;21335;-64
2022/06/02 10:11:35;;;;;;;5.93;4.93;;;11.60;99.90;;;;;;5007296;28;20649;-65
2022/06/02 10:14:18;;;;;;;16.40;5.78;;;11.60;99.90;;;;;;5009642;28;20049;-65
2022/06/02 10:17:25;;;;;;;5.82;4.35;;;11.60;99.90;;;;;;5011788;28;20132;-66
2022/06/02 10:20:07;;;;;;;4.65;3.72;;;11.60;99.90;;;;;;4982277;28;20099;-66
2022/06/02 10:22:50;;;;;;;8.05;4.50;;;11.60;99.90;;;;;;5010168;28;20077;-67
2022/06/02 10:25:37;;;;;;;7.63;4.30;;;11.70;99.90;;;;;;5005563;28;20455;-66
2022/06/02 10:28:17;;;;;;;7.80;5.63;;;11.70;99.90;;;;;;5006822;28;20053;-65
2022/06/02 10:31:20;;;;;;;6.10;5.15;;;11.80;99.90;;;;;;5007504;28;20053;-65
2022/06/02 10:34:06;;;;;;;9.57;5.13;;;11.80;99.90;;;;;;5007154;28;20053;-68
2022/06/02 10:36:44;;;;;;;7.28;5.00;;;11.90;99.90;;;;;;5006417;28;20192;-67
2022/06/02 10:39:23;;;;;;;6.85;4.13;;;12.00;99.90;;;;;;5005675;28;20053;-66
2022/06/02 10:41:57;;;;;;;6.07;3.88;;;12.10;99.90;;;;;;5003296;28;20067;-65
2022/06/02 10:44:47;;;;;;;5.85;3.72;;;12.20;99.90;;;;;;5004279;28;20158;-66
2022/06/02 10:47:53;;;;;;;3.95;3.55;;;12.30;99.90;;;;;;5006283;28;20057;-68
2022/06/02 10:50:27;;;;;;;4.95;4.38;;;12.30;99.90;;;;;;5007333;28;20140;-66
2022/06/02 10:53:19;;;;;;;9.30;4.22;;;12.30;99.90;;;;;;5008122;28;20103;-66
2022/06/02 10:56:08;;;;;;;8.93;4.57;;;12.30;99.90;;;;;;5007111;28;20476;-68
2022/06/02 10:58:57;;;;;;;4.53;3.85;;;12.40;99.90;;;;;;5004131;28;20138;-68
2022/06/02 11:01:32;;;;;;;6.75;4.30;;;12.30;99.90;;;;;;5009199;28;20829;-67
2022/06/02 11:04:53;;;;;;;6.18;3.90;;;12.40;99.90;;;;;;5009402;28;20430;-68
2022/06/02 11:07:39;;;;;;;6.35;3.55;;;12.30;99.90;;;;;;5009895;28;20062;-65
2022/06/02 11:10:12;;;;;;;8.45;5.35;;;12.30;99.90;;;;;;5009046;28;20045;-65
2022/06/02 11:13:10;;;;;;;4.13;3.83;;;12.30;99.90;;;;;;5006570;28;20059;-68
2022/06/02 11:16:12;;;;;;;7.28;4.05;;;12.30;99.90;;;;;;4973731;28;20049;-67
2022/06/02 11:19:10;;;;;;;3.85;3.38;;;12.40;99.90;;;;;;5010039;28;20097;-68
2022/06/02 11:21:55;;;;;;;4.88;3.42;;;12.40;99.90;;;;;;5010209;28;20067;-65
2022/06/02 11:24:59;;;;;;;5.32;3.90;;;12.50;99.90;;;;;;5005702;28;20065;-69
2022/06/02 11:27:40;;;;;;;6.15;4.75;;;12.70;99.90;;;;;;5009573;28;20063;-68
2022/06/02 11:30:12;;;;;;;9.15;4.60;;;13.00;99.90;;;;;;5008309;28;20139;-65
2022/06/02 11:32:54;;;;;;;4.00;3.70;;;13.20;99.90;;;;;;5009670;28;20602;-65
2022/06/02 11:35:44;;;;;;;3.28;2.88;;;13.40;99.90;;;;;;5005740;28;20154;-67
2022/06/02 11:38:31;;;;;;;7.25;3.55;;;13.50;99.90;;;;;;4999990;28;20045;-65
2022/06/02 11:41:25;;;;;;;7.72;4.22;;;13.50;99.90;;;;;;5008128;28;20091;-67
2022/06/02 11:44:12;;;;;;;7.18;3.20;;;13.60;99.90;;;;;;5008381;28;20209;-67
2022/06/02 11:47:00;;;;;;;3.92;3.30;;;13.90;99.90;;;;;;4999025;28;20186;-67
2022/06/02 11:50:06;;;;;;;4.13;3.22;;;14.20;99.90;;;;;;5004963;28;21574;-68
2022/06/02 11:53:08;;;;;;;4.50;2.58;;;14.30;99.90;;;;;;5000046;28;20184;-67
2022/06/02 11:55:56;;;;;;;2.47;2.28;;;14.50;99.90;;;;;;5001247;28;21848;-67
2022/06/02 11:58:58;;;;;;;4.13;2.78;;;14.70;99.90;;;;;;5003718;28;20321;-67
2022/06/02 12:01:47;;;;;;;2.92;2.20;;;14.80;99.90;;;;;;5004935;28;20149;-65
2022/06/02 12:05:11;;;;;;;3.35;2.00;;;14.90;99.90;;;;;;5003732;28;20053;-69
2022/06/02 12:08:01;;;;;;;2.13;1.92;;;15.00;99.90;;;;;;4961678;28;20050;-68
2022/06/02 12:11:08;;;;;;;3.67;2.65;;;15.00;99.90;;;;;;4975495;28;20049;-67
2022/06/02 12:13:55;;;;;;;3.25;1.80;;;15.10;99.90;;;;;;5007602;28;20104;-65
2022/06/02 12:16:47;;;;;;;3.22;1.70;;;15.20;99.90;;;;;;5018032;28;20522;-67
2022/06/02 12:19:23;;;;;;;1.75;1.65;;;15.30;99.90;;;;;;5006019;28;20247;-69
2022/06/02 12:22:22;;;;;;;2.20;1.70;;;15.50;99.90;;;;;;5009702;28;20147;-67
2022/06/02 12:25:14;;;;;;;5.55;2.38;;;15.70;99.90;;;;;;4983270;28;20321;-66
2022/06/02 12:28:11;;;;;;;5.13;1.70;;;15.70;99.90;;;;;;5008596;28;20208;-65
2022/06/02 12:31:03;;;;;;;2.20;1.52;;;15.70;99.90;;;;;;5007586;28;21061;-66
2022/06/02 12:33:47;;;;;;;1.60;1.50;;;15.60;99.90;;;;;;5007781;28;20053;-65
2022/06/02 12:36:26;;;;;;;3.22;1.52;;;15.30;99.90;;;;;;5006521;28;20045;-67
2022/06/02 12:39:12;;;;;;;2.40;1.92;;;15.20;99.90;;;;;;5008251;28;20053;-68
2022/06/02 12:41:53;;;;;;;2.45;1.77;;;15.20;99.90;;;;;;5008154;28;20495;-65
2022/06/02 12:44:25;;;;;;;3.20;2.00;;;15.20;99.90;;;;;;4988271;28;20188;-66
2022/06/02 12:46:58;;;;;;;2.55;1.30;;;15.20;99.90;;;;;;5009321;28;20103;-65
2022/06/02 12:49:34;;;;;;;1.48;1.38;;;15.20;99.90;;;;;;5007003;28;20702;-70
2022/06/02 12:52:19;;;;;;;1.80;1.70;;;15.30;99.90;;;;;;4996791;28;20207;-68
2022/06/02 12:55:03;;;;;;;2.65;1.55;;;15.40;99.90;;;;;;5006527;28;20075;-65
2022/06/02 12:58:15;;;;;;;2.67;2.08;;;15.40;99.90;;;;;;5007415;28;20059;-66
2022/06/02 13:01:13;;;;;;;1.92;1.83;;;15.50;99.90;;;;;;4998275;28;20143;-66
2022/06/02 13:04:06;;;;;;;3.42;2.03;;;15.60;99.90;;;;;;5009304;28;20077;-66
2022/06/02 13:06:47;;;;;;;2.38;2.00;;;15.80;99.90;;;;;;5003746;28;20064;-69
2022/06/02 13:09:50;;;;;;;3.60;1.95;;;16.20;99.90;;;;;;5009535;28;20125;-66
2022/06/02 13:12:39;;;;;;;3.35;1.85;;;16.50;99.90;;;;;;4975654;28;20146;-65
2022/06/02 13:15:20;;;;;;;3.88;1.77;;;16.70;99.90;;;;;;5005200;28;21305;-69
2022/06/02 13:18:14;;;;;;;2.55;1.92;;;16.90;99.90;;;;;;5014002;28;20045;-68
2022/06/02 13:21:13;;;;;;;3.42;1.65;;;17.00;99.90;;;;;;5011667;28;20084;-66
2022/06/02 13:24:07;;;;;;;3.00;1.80;;;17.00;99.90;;;;;;5012355;28;20107;-65
2022/06/02 13:26:47;;;;;;;1.23;1.13;;;16.70;99.90;;;;;;5011973;28;20053;-67
2022/06/02 13:29:52;;;;;;;3.03;2.08;;;16.70;99.90;;;;;;5011245;28;20676;-68
2022/06/02 13:32:56;;;;;;;4.38;2.85;;;16.50;99.90;;;;;;5006185;28;20832;-65
2022/06/02 13:35:47;;;;;;;1.70;1.42;;;16.60;99.90;;;;;;5009165;28;20140;-64
2022/06/02 13:38:48;;;;;;;2.20;1.42;;;16.80;99.90;;;;;;5010740;28;20508;-68
2022/06/02 13:41:46;;;;;;;4.25;2.10;;;17.00;99.90;;;;;;5011925;28;20119;-66
2022/06/02 13:44:50;;;;;;;5.00;1.58;;;17.00;99.90;;;;;;5007307;28;20610;-67
2022/06/02 13:47:38;;;;;;;8.07;1.98;;;17.30;99.90;;;;;;5004650;28;20056;-66
2022/06/02 13:50:31;;;;;;;1.75;1.55;;;17.50;99.90;;;;;;5008240;28;20671;-65
2022/06/02 13:57:30;;;;;;;3.88;1.50;;;17.70;99.90;;;;;;5008856;28;20392;-66
2022/06/02 14:00:09;;;;;;;1.88;1.67;;;17.60;99.90;;;;;;5002164;28;20144;-68
2022/06/02 14:03:04;;;;;;;4.32;3.47;;;17.50;99.90;;;;;;5000332;28;20049;-67
2022/06/02 14:06:05;;;;;;;2.05;1.85;;;17.30;99.90;;;;;;5002591;28;20046;-66
2022/06/02 14:09:02;;;;;;;3.83;2.63;;;16.90;99.90;;;;;;5002240;28;20642;-66
2022/06/02 14:11:38;;;;;;;3.53;2.40;;;16.60;99.90;;;;;;5002221;28;20652;-68
2022/06/02 14:14:31;;;;;;;9.30;2.42;;;16.20;99.90;;;;;;5002729;28;20191;-67
2022/06/02 14:17:20;;;;;;;3.50;2.92;;;16.10;99.90;;;;;;5005474;28;20053;-67
2022/06/02 14:19:59;;;;;;;4.30;2.88;;;16.00;99.90;;;;;;5008259;28;20080;-64
2022/06/02 14:22:45;;;;;;;5.13;2.80;;;16.10;99.90;;;;;;5008691;28;20060;-65
2022/06/02 14:25:15;;;;;;;2.67;2.33;;;16.10;99.90;;;;;;5007091;28;20060;-66
2022/06/02 14:28:06;;;;;;;3.65;2.60;;;16.20;99.90;;;;;;5008542;28;20099;-66
2022/06/02 14:30:48;;;;;;;6.22;2.10;;;16.40;99.90;;;;;;5009606;28;21045;-65
2022/06/02 14:33:37;;;;;;;5.22;2.38;;;16.40;99.90;;;;;;5009200;28;20045;-67
2022/06/02 14:36:29;;;;;;;3.08;2.03;;;16.40;99.90;;;;;;4997564;28;20107;-66
2022/06/02 14:39:07;;;;;;;10.15;2.00;;;16.70;99.90;;;;;;5010572;28;20053;-64
2022/06/02 14:42:03;;;;;;;2.97;1.85;;;16.90;99.90;;;;;;5008172;28;20049;-69
2022/06/02 14:45:02;;;;;;;2.85;1.40;;;17.10;99.90;;;;;;5009541;28;20054;-66